sensor_id;sensor_type;location;lat;lon;timestamp;P1;durP1;ratioP1;P2;durP2;ratioP2
11247;SDS011;5681;53.316;13.950;2024-01-30T00:02:16;11.90;;;7.53;;
11247;SDS011;5681;53.316;13.950;2024-01-30T00:04:43;11.83;;;6.63;;
11247;SDS011;5681;53.316;13.950;2024-01-30T00:07:10;9.53;;;6.60;;
11247;SDS011;5681;53.316;13.950;2024-01-30T00:09:37;9.40;;;6.77;;
11247;SDS011;5681;53.316;13.950;2024-01-30T00:12:04;11.87;;;7.30;;
11247;SDS011;5681;53.316;13.950;2024-01-30T00:14:31;12.60;;;7.33;;
11247;SDS011;5681;53.316;13.950;2024-01-30T00:16:57;12.03;;;7.60;;
11247;SDS011;5681;53.316;13.950;2024-01-30T00:19:24;10.17;;;7.20;;
11247;SDS011;5681;53.316;13.950;2024-01-30T00:21:52;10.97;;;7.00;;
11247;SDS011;5681;53.316;13.950;2024-01-30T00:24:18;11.20;;;7.27;;
11247;SDS011;5681;53.316;13.950;2024-01-30T00:26:45;12.97;;;7.93;;
11247;SDS011;5681;53.316;13.950;2024-01-30T00:29:11;11.73;;;7.43;;
11247;SDS011;5681;53.316;13.950;2024-01-30T00:31:44;10.30;;;7.30;;
11247;SDS011;5681;53.316;13.950;2024-01-30T00:34:10;9.10;;;7.10;;
11247;SDS011;5681;53.316;13.950;2024-01-30T00:36:37;11.23;;;8.00;;
11247;SDS011;5681;53.316;13.950;2024-01-30T00:39:04;12.67;;;7.50;;
11247;SDS011;5681;53.316;13.950;2024-01-30T00:41:33;12.10;;;7.87;;
11247;SDS011;5681;53.316;13.950;2024-01-30T00:44:00;13.00;;;7.70;;
11247;SDS011;5681;53.316;13.950;2024-01-30T00:46:26;13.93;;;7.33;;
11247;SDS011;5681;53.316;13.950;2024-01-30T00:48:53;11.80;;;7.17;;
11247;SDS011;5681;53.316;13.950;2024-01-30T00:51:19;12.33;;;7.90;;
11247;SDS011;5681;53.316;13.950;2024-01-30T00:53:45;11.47;;;7.03;;
11247;SDS011;5681;53.316;13.950;2024-01-30T00:56:13;11.00;;;7.00;;
11247;SDS011;5681;53.316;13.950;2024-01-30T00:58:43;13.37;;;8.27;;
11247;SDS011;5681;53.316;13.950;2024-01-30T01:01:09;11.03;;;7.73;;
11247;SDS011;5681;53.316;13.950;2024-01-30T01:03:36;14.00;;;8.30;;
11247;SDS011;5681;53.316;13.950;2024-01-30T01:06:02;14.30;;;7.63;;
11247;SDS011;5681;53.316;13.950;2024-01-30T01:08:29;11.80;;;7.90;;
11247;SDS011;5681;53.316;13.950;2024-01-30T01:10:55;10.47;;;7.87;;
11247;SDS011;5681;53.316;13.950;2024-01-30T01:13:23;13.30;;;7.57;;
11247;SDS011;5681;53.316;13.950;2024-01-30T01:15:50;14.33;;;8.20;;
11247;SDS011;5681;53.316;13.950;2024-01-30T01:18:16;13.77;;;8.43;;
11247;SDS011;5681;53.316;13.950;2024-01-30T01:20:42;13.03;;;7.77;;
11247;SDS011;5681;53.316;13.950;2024-01-30T01:23:09;13.53;;;8.43;;
11247;SDS011;5681;53.316;13.950;2024-01-30T01:25:35;11.70;;;8.10;;
11247;SDS011;5681;53.316;13.950;2024-01-30T01:28:01;14.90;;;8.40;;
11247;SDS011;5681;53.316;13.950;2024-01-30T01:30:30;16.20;;;8.67;;
11247;SDS011;5681;53.316;13.950;2024-01-30T01:32:56;14.07;;;8.27;;
11247;SDS011;5681;53.316;13.950;2024-01-30T01:35:26;11.67;;;7.73;;
11247;SDS011;5681;53.316;13.950;2024-01-30T01:37:53;13.20;;;7.90;;
11247;SDS011;5681;53.316;13.950;2024-01-30T01:40:21;14.03;;;7.83;;
11247;SDS011;5681;53.316;13.950;2024-01-30T01:42:49;15.83;;;8.83;;
11247;SDS011;5681;53.316;13.950;2024-01-30T01:45:16;13.30;;;7.80;;
11247;SDS011;5681;53.316;13.950;2024-01-30T01:47:43;11.87;;;8.00;;
11247;SDS011;5681;53.316;13.950;2024-01-30T01:50:11;9.87;;;7.17;;
11247;SDS011;5681;53.316;13.950;2024-01-30T01:52:37;11.63;;;7.50;;
11247;SDS011;5681;53.316;13.950;2024-01-30T01:55:05;13.97;;;8.00;;
11247;SDS011;5681;53.316;13.950;2024-01-30T01:57:33;14.80;;;7.60;;
11247;SDS011;5681;53.316;13.950;2024-01-30T02:00:00;11.27;;;7.70;;
11247;SDS011;5681;53.316;13.950;2024-01-30T02:02:27;12.70;;;7.97;;
11247;SDS011;5681;53.316;13.950;2024-01-30T02:04:59;13.83;;;7.80;;
11247;SDS011;5681;53.316;13.950;2024-01-30T02:07:25;11.83;;;7.97;;
11247;SDS011;5681;53.316;13.950;2024-01-30T02:09:53;12.53;;;7.80;;
11247;SDS011;5681;53.316;13.950;2024-01-30T02:12:19;13.20;;;8.20;;
11247;SDS011;5681;53.316;13.950;2024-01-30T02:14:46;12.23;;;8.30;;
11247;SDS011;5681;53.316;13.950;2024-01-30T02:17:12;12.73;;;8.40;;
11247;SDS011;5681;53.316;13.950;2024-01-30T02:19:39;14.67;;;8.17;;
11247;SDS011;5681;53.316;13.950;2024-01-30T02:22:07;11.03;;;7.50;;
11247;SDS011;5681;53.316;13.950;2024-01-30T02:24:33;13.20;;;8.40;;
11247;SDS011;5681;53.316;13.950;2024-01-30T02:27:00;12.83;;;8.10;;
11247;SDS011;5681;53.316;13.950;2024-01-30T02:29:26;11.40;;;7.17;;
11247;SDS011;5681;53.316;13.950;2024-01-30T02:31:53;12.23;;;7.93;;
11247;SDS011;5681;53.316;13.950;2024-01-30T02:34:19;11.33;;;7.67;;
11247;SDS011;5681;53.316;13.950;2024-01-30T02:36:46;11.93;;;8.10;;
11247;SDS011;5681;53.316;13.950;2024-01-30T02:39:14;11.20;;;8.03;;
11247;SDS011;5681;53.316;13.950;2024-01-30T02:41:40;16.90;;;8.23;;
11247;SDS011;5681;53.316;13.950;2024-01-30T02:44:06;12.67;;;8.27;;
11247;SDS011;5681;53.316;13.950;2024-01-30T02:46:33;13.67;;;8.20;;
11247;SDS011;5681;53.316;13.950;2024-01-30T02:48:59;12.17;;;7.87;;
11247;SDS011;5681;53.316;13.950;2024-01-30T02:51:25;14.60;;;8.43;;
11247;SDS011;5681;53.316;13.950;2024-01-30T02:53:52;11.80;;;7.90;;
11247;SDS011;5681;53.316;13.950;2024-01-30T02:56:20;12.20;;;7.77;;
11247;SDS011;5681;53.316;13.950;2024-01-30T02:58:46;13.83;;;8.17;;
11247;SDS011;5681;53.316;13.950;2024-01-30T03:01:12;11.93;;;8.30;;
11247;SDS011;5681;53.316;13.950;2024-01-30T03:03:39;14.77;;;8.90;;
11247;SDS011;5681;53.316;13.950;2024-01-30T03:06:05;12.53;;;8.80;;
11247;SDS011;5681;53.316;13.950;2024-01-30T03:08:32;12.90;;;8.63;;
11247;SDS011;5681;53.316;13.950;2024-01-30T03:10:59;12.50;;;8.73;;
11247;SDS011;5681;53.316;13.950;2024-01-30T03:13:28;15.13;;;8.93;;
11247;SDS011;5681;53.316;13.950;2024-01-30T03:15:54;14.77;;;8.30;;
11247;SDS011;5681;53.316;13.950;2024-01-30T03:18:20;13.07;;;8.50;;
11247;SDS011;5681;53.316;13.950;2024-01-30T03:20:47;13.73;;;8.50;;
11247;SDS011;5681;53.316;13.950;2024-01-30T03:23:13;11.67;;;7.77;;
11247;SDS011;5681;53.316;13.950;2024-01-30T03:25:39;11.50;;;7.17;;
11247;SDS011;5681;53.316;13.950;2024-01-30T03:28:06;15.03;;;8.00;;
11247;SDS011;5681;53.316;13.950;2024-01-30T03:30:35;12.57;;;8.20;;
11247;SDS011;5681;53.316;13.950;2024-01-30T03:33:01;13.33;;;8.53;;
11247;SDS011;5681;53.316;13.950;2024-01-30T03:35:27;12.93;;;8.50;;
11247;SDS011;5681;53.316;13.950;2024-01-30T03:37:54;12.27;;;8.17;;
11247;SDS011;5681;53.316;13.950;2024-01-30T03:40:20;15.90;;;9.13;;
11247;SDS011;5681;53.316;13.950;2024-01-30T03:42:46;12.27;;;8.53;;
11247;SDS011;5681;53.316;13.950;2024-01-30T03:45:13;15.50;;;8.77;;
11247;SDS011;5681;53.316;13.950;2024-01-30T03:47:41;13.47;;;8.27;;
11247;SDS011;5681;53.316;13.950;2024-01-30T03:50:09;14.70;;;8.37;;
11247;SDS011;5681;53.316;13.950;2024-01-30T03:52:36;13.57;;;8.60;;
11247;SDS011;5681;53.316;13.950;2024-01-30T03:55:02;13.60;;;7.93;;
11247;SDS011;5681;53.316;13.950;2024-01-30T03:57:30;13.47;;;8.17;;
11247;SDS011;5681;53.316;13.950;2024-01-30T03:59:56;14.60;;;8.70;;
11247;SDS011;5681;53.316;13.950;2024-01-30T04:02:22;12.00;;;8.23;;
11247;SDS011;5681;53.316;13.950;2024-01-30T04:04:51;14.47;;;8.67;;
11247;SDS011;5681;53.316;13.950;2024-01-30T04:07:17;13.47;;;8.77;;
11247;SDS011;5681;53.316;13.950;2024-01-30T04:09:43;13.60;;;8.33;;
11247;SDS011;5681;53.316;13.950;2024-01-30T04:12:10;14.03;;;7.97;;
11247;SDS011;5681;53.316;13.950;2024-01-30T04:14:37;15.77;;;9.03;;
11247;SDS011;5681;53.316;13.950;2024-01-30T04:17:04;12.93;;;7.90;;
11247;SDS011;5681;53.316;13.950;2024-01-30T04:19:30;14.23;;;8.20;;
11247;SDS011;5681;53.316;13.950;2024-01-30T04:21:58;13.90;;;8.53;;
11247;SDS011;5681;53.316;13.950;2024-01-30T04:24:24;14.33;;;8.53;;
11247;SDS011;5681;53.316;13.950;2024-01-30T04:26:50;13.03;;;8.57;;
11247;SDS011;5681;53.316;13.950;2024-01-30T04:29:17;13.67;;;8.33;;
11247;SDS011;5681;53.316;13.950;2024-01-30T04:31:44;12.03;;;8.37;;
11247;SDS011;5681;53.316;13.950;2024-01-30T04:34:10;13.03;;;8.57;;
11247;SDS011;5681;53.316;13.950;2024-01-30T04:36:37;15.43;;;8.53;;
11247;SDS011;5681;53.316;13.950;2024-01-30T04:39:05;12.30;;;8.17;;
11247;SDS011;5681;53.316;13.950;2024-01-30T04:41:33;14.40;;;8.20;;
11247;SDS011;5681;53.316;13.950;2024-01-30T04:44:00;14.77;;;8.67;;
11247;SDS011;5681;53.316;13.950;2024-01-30T04:46:26;10.43;;;7.53;;
11247;SDS011;5681;53.316;13.950;2024-01-30T04:48:53;14.73;;;8.53;;
11247;SDS011;5681;53.316;13.950;2024-01-30T04:51:19;13.60;;;8.83;;
11247;SDS011;5681;53.316;13.950;2024-01-30T04:53:45;14.30;;;8.23;;
11247;SDS011;5681;53.316;13.950;2024-01-30T04:56:13;14.17;;;8.23;;
11247;SDS011;5681;53.316;13.950;2024-01-30T04:58:39;15.50;;;8.57;;
11247;SDS011;5681;53.316;13.950;2024-01-30T05:01:07;12.50;;;8.57;;
11247;SDS011;5681;53.316;13.950;2024-01-30T05:03:33;12.27;;;8.10;;
11247;SDS011;5681;53.316;13.950;2024-01-30T05:06:00;13.37;;;8.20;;
11247;SDS011;5681;53.316;13.950;2024-01-30T05:08:26;13.50;;;8.73;;
11247;SDS011;5681;53.316;13.950;2024-01-30T05:10:53;12.33;;;8.63;;
11247;SDS011;5681;53.316;13.950;2024-01-30T05:13:20;15.83;;;8.37;;
11247;SDS011;5681;53.316;13.950;2024-01-30T05:15:47;14.00;;;8.83;;
11247;SDS011;5681;53.316;13.950;2024-01-30T05:18:13;12.70;;;8.50;;
11247;SDS011;5681;53.316;13.950;2024-01-30T05:20:40;14.03;;;9.00;;
11247;SDS011;5681;53.316;13.950;2024-01-30T05:23:25;15.90;;;8.80;;
11247;SDS011;5681;53.316;13.950;2024-01-30T05:25:51;14.80;;;8.70;;
11247;SDS011;5681;53.316;13.950;2024-01-30T05:28:17;13.77;;;9.00;;
11247;SDS011;5681;53.316;13.950;2024-01-30T05:30:45;16.60;;;8.90;;
11247;SDS011;5681;53.316;13.950;2024-01-30T05:33:12;12.10;;;8.77;;
11247;SDS011;5681;53.316;13.950;2024-01-30T05:35:38;13.93;;;8.97;;
11247;SDS011;5681;53.316;13.950;2024-01-30T05:38:04;14.87;;;9.17;;
11247;SDS011;5681;53.316;13.950;2024-01-30T05:40:31;16.57;;;9.70;;
11247;SDS011;5681;53.316;13.950;2024-01-30T05:42:57;15.20;;;8.87;;
11247;SDS011;5681;53.316;13.950;2024-01-30T05:45:26;13.40;;;9.13;;
11247;SDS011;5681;53.316;13.950;2024-01-30T05:47:53;15.03;;;9.47;;
11247;SDS011;5681;53.316;13.950;2024-01-30T05:50:20;15.90;;;9.77;;
11247;SDS011;5681;53.316;13.950;2024-01-30T05:52:48;12.80;;;8.57;;
11247;SDS011;5681;53.316;13.950;2024-01-30T05:55:14;14.93;;;8.57;;
11247;SDS011;5681;53.316;13.950;2024-01-30T05:57:41;17.47;;;9.27;;
11247;SDS011;5681;53.316;13.950;2024-01-30T06:00:07;14.33;;;9.60;;
11247;SDS011;5681;53.316;13.950;2024-01-30T06:02:34;13.20;;;8.47;;
11247;SDS011;5681;53.316;13.950;2024-01-30T06:05:02;13.57;;;9.27;;
11247;SDS011;5681;53.316;13.950;2024-01-30T06:07:40;14.07;;;8.97;;
11247;SDS011;5681;53.316;13.950;2024-01-30T06:10:07;13.00;;;8.03;;
11247;SDS011;5681;53.316;13.950;2024-01-30T06:12:34;13.57;;;8.63;;
11247;SDS011;5681;53.316;13.950;2024-01-30T06:15:01;12.83;;;8.93;;
11247;SDS011;5681;53.316;13.950;2024-01-30T06:17:28;14.40;;;8.80;;
11247;SDS011;5681;53.316;13.950;2024-01-30T06:19:54;13.13;;;8.63;;
11247;SDS011;5681;53.316;13.950;2024-01-30T06:22:22;15.70;;;9.47;;
11247;SDS011;5681;53.316;13.950;2024-01-30T06:24:48;15.20;;;9.00;;
11247;SDS011;5681;53.316;13.950;2024-01-30T06:27:14;12.90;;;9.27;;
11247;SDS011;5681;53.316;13.950;2024-01-30T06:29:42;12.23;;;8.50;;
11247;SDS011;5681;53.316;13.950;2024-01-30T06:32:09;14.23;;;9.13;;
11247;SDS011;5681;53.316;13.950;2024-01-30T06:34:35;15.20;;;8.87;;
11247;SDS011;5681;53.316;13.950;2024-01-30T06:37:03;15.43;;;9.37;;
11247;SDS011;5681;53.316;13.950;2024-01-30T06:39:31;13.80;;;8.70;;
11247;SDS011;5681;53.316;13.950;2024-01-30T06:41:57;14.07;;;9.10;;
11247;SDS011;5681;53.316;13.950;2024-01-30T06:44:24;14.03;;;9.07;;
11247;SDS011;5681;53.316;13.950;2024-01-30T06:46:50;13.00;;;8.63;;
11247;SDS011;5681;53.316;13.950;2024-01-30T06:49:16;14.10;;;8.77;;
11247;SDS011;5681;53.316;13.950;2024-01-30T06:51:43;13.43;;;9.27;;
11247;SDS011;5681;53.316;13.950;2024-01-30T06:54:09;12.30;;;9.00;;
11247;SDS011;5681;53.316;13.950;2024-01-30T06:56:37;15.00;;;9.20;;
11247;SDS011;5681;53.316;13.950;2024-01-30T06:59:03;14.80;;;8.93;;
11247;SDS011;5681;53.316;13.950;2024-01-30T07:01:30;23.03;;;9.63;;
11247;SDS011;5681;53.316;13.950;2024-01-30T07:03:57;16.33;;;9.40;;
11247;SDS011;5681;53.316;13.950;2024-01-30T07:06:23;16.27;;;9.27;;
11247;SDS011;5681;53.316;13.950;2024-01-30T07:08:50;17.03;;;8.43;;
11247;SDS011;5681;53.316;13.950;2024-01-30T07:11:18;14.77;;;9.10;;
11247;SDS011;5681;53.316;13.950;2024-01-30T07:13:46;13.77;;;9.40;;
11247;SDS011;5681;53.316;13.950;2024-01-30T07:16:13;15.03;;;9.00;;
11247;SDS011;5681;53.316;13.950;2024-01-30T07:18:39;13.93;;;8.43;;
11247;SDS011;5681;53.316;13.950;2024-01-30T07:21:06;13.27;;;8.37;;
11247;SDS011;5681;53.316;13.950;2024-01-30T07:23:32;17.07;;;9.80;;
11247;SDS011;5681;53.316;13.950;2024-01-30T07:25:59;14.27;;;8.97;;
11247;SDS011;5681;53.316;13.950;2024-01-30T07:28:26;12.23;;;8.63;;
11247;SDS011;5681;53.316;13.950;2024-01-30T07:30:54;12.00;;;9.17;;
11247;SDS011;5681;53.316;13.950;2024-01-30T07:33:20;12.70;;;8.87;;
11247;SDS011;5681;53.316;13.950;2024-01-30T07:35:46;27.47;;;10.07;;
11247;SDS011;5681;53.316;13.950;2024-01-30T07:38:13;15.53;;;9.73;;
11247;SDS011;5681;53.316;13.950;2024-01-30T07:40:39;14.33;;;9.73;;
11247;SDS011;5681;53.316;13.950;2024-01-30T07:43:06;14.80;;;9.60;;
11247;SDS011;5681;53.316;13.950;2024-01-30T07:45:33;15.70;;;9.23;;
11247;SDS011;5681;53.316;13.950;2024-01-30T07:48:00;14.90;;;9.63;;
11247;SDS011;5681;53.316;13.950;2024-01-30T07:50:27;20.90;;;10.83;;
11247;SDS011;5681;53.316;13.950;2024-01-30T07:52:53;15.90;;;9.67;;
11247;SDS011;5681;53.316;13.950;2024-01-30T07:55:21;16.30;;;9.60;;
11247;SDS011;5681;53.316;13.950;2024-01-30T07:57:49;13.53;;;9.60;;
11247;SDS011;5681;53.316;13.950;2024-01-30T08:00:16;11.50;;;8.70;;
11247;SDS011;5681;53.316;13.950;2024-01-30T08:02:43;15.67;;;9.63;;
11247;SDS011;5681;53.316;13.950;2024-01-30T08:05:11;15.20;;;9.70;;
11247;SDS011;5681;53.316;13.950;2024-01-30T08:07:39;12.97;;;9.63;;
11247;SDS011;5681;53.316;13.950;2024-01-30T08:10:06;13.80;;;9.40;;
11247;SDS011;5681;53.316;13.950;2024-01-30T08:12:33;19.03;;;10.20;;
11247;SDS011;5681;53.316;13.950;2024-01-30T08:14:59;16.80;;;9.90;;
11247;SDS011;5681;53.316;13.950;2024-01-30T08:17:26;17.77;;;10.10;;
11247;SDS011;5681;53.316;13.950;2024-01-30T08:19:52;14.17;;;10.17;;
11247;SDS011;5681;53.316;13.950;2024-01-30T08:22:20;14.07;;;9.67;;
11247;SDS011;5681;53.316;13.950;2024-01-30T08:24:47;19.17;;;11.10;;
11247;SDS011;5681;53.316;13.950;2024-01-30T08:27:14;14.90;;;9.73;;
11247;SDS011;5681;53.316;13.950;2024-01-30T08:29:40;16.87;;;9.73;;
11247;SDS011;5681;53.316;13.950;2024-01-30T08:32:07;14.37;;;9.47;;
11247;SDS011;5681;53.316;13.950;2024-01-30T08:34:33;15.17;;;9.23;;
11247;SDS011;5681;53.316;13.950;2024-01-30T08:37:00;19.87;;;11.40;;
11247;SDS011;5681;53.316;13.950;2024-01-30T08:39:28;15.17;;;9.90;;
11247;SDS011;5681;53.316;13.950;2024-01-30T08:41:55;14.07;;;9.70;;
11247;SDS011;5681;53.316;13.950;2024-01-30T08:44:22;15.17;;;9.53;;
11247;SDS011;5681;53.316;13.950;2024-01-30T08:46:48;16.67;;;10.63;;
11247;SDS011;5681;53.316;13.950;2024-01-30T08:49:16;14.57;;;10.30;;
11247;SDS011;5681;53.316;13.950;2024-01-30T08:51:42;14.23;;;9.57;;
11247;SDS011;5681;53.316;13.950;2024-01-30T08:54:09;15.70;;;9.80;;
11247;SDS011;5681;53.316;13.950;2024-01-30T08:56:37;17.10;;;10.13;;
11247;SDS011;5681;53.316;13.950;2024-01-30T08:59:03;14.47;;;10.17;;
11247;SDS011;5681;53.316;13.950;2024-01-30T09:01:30;14.57;;;9.40;;
11247;SDS011;5681;53.316;13.950;2024-01-30T09:03:56;20.23;;;10.40;;
11247;SDS011;5681;53.316;13.950;2024-01-30T09:06:23;15.30;;;10.27;;
11247;SDS011;5681;53.316;13.950;2024-01-30T09:08:51;15.77;;;9.67;;
11247;SDS011;5681;53.316;13.950;2024-01-30T09:11:18;12.80;;;9.43;;
11247;SDS011;5681;53.316;13.950;2024-01-30T09:13:46;15.37;;;10.10;;
11247;SDS011;5681;53.316;13.950;2024-01-30T09:16:12;14.57;;;9.70;;
11247;SDS011;5681;53.316;13.950;2024-01-30T09:18:41;14.50;;;9.50;;
11247;SDS011;5681;53.316;13.950;2024-01-30T09:21:07;12.37;;;9.30;;
11247;SDS011;5681;53.316;13.950;2024-01-30T09:23:34;18.00;;;9.10;;
11247;SDS011;5681;53.316;13.950;2024-01-30T09:26:00;13.90;;;8.90;;
11247;SDS011;5681;53.316;13.950;2024-01-30T09:28:27;17.20;;;9.70;;
11247;SDS011;5681;53.316;13.950;2024-01-30T09:30:54;14.63;;;9.47;;
11247;SDS011;5681;53.316;13.950;2024-01-30T09:33:21;13.07;;;9.40;;
11247;SDS011;5681;53.316;13.950;2024-01-30T09:35:48;12.70;;;8.90;;
11247;SDS011;5681;53.316;13.950;2024-01-30T09:38:14;14.53;;;10.67;;
11247;SDS011;5681;53.316;13.950;2024-01-30T09:40:40;15.37;;;9.80;;
11247;SDS011;5681;53.316;13.950;2024-01-30T09:43:07;18.00;;;9.93;;
11247;SDS011;5681;53.316;13.950;2024-01-30T09:45:34;14.63;;;9.77;;
11247;SDS011;5681;53.316;13.950;2024-01-30T09:48:02;11.90;;;9.30;;
11247;SDS011;5681;53.316;13.950;2024-01-30T09:50:30;12.90;;;10.00;;
11247;SDS011;5681;53.316;13.950;2024-01-30T09:52:56;13.07;;;9.80;;
11247;SDS011;5681;53.316;13.950;2024-01-30T09:55:24;12.63;;;9.67;;
11247;SDS011;5681;53.316;13.950;2024-01-30T09:57:50;15.17;;;9.30;;
11247;SDS011;5681;53.316;13.950;2024-01-30T10:00:17;11.67;;;8.97;;
11247;SDS011;5681;53.316;13.950;2024-01-30T10:02:44;15.20;;;9.57;;
11247;SDS011;5681;53.316;13.950;2024-01-30T10:05:13;14.50;;;9.53;;
11247;SDS011;5681;53.316;13.950;2024-01-30T10:07:49;15.40;;;9.57;;
11247;SDS011;5681;53.316;13.950;2024-01-30T10:10:16;11.57;;;8.73;;
11247;SDS011;5681;53.316;13.950;2024-01-30T10:12:42;14.57;;;8.97;;
11247;SDS011;5681;53.316;13.950;2024-01-30T10:15:09;14.53;;;9.77;;
11247;SDS011;5681;53.316;13.950;2024-01-30T10:17:37;13.70;;;9.43;;
11247;SDS011;5681;53.316;13.950;2024-01-30T10:20:04;13.43;;;8.50;;
11247;SDS011;5681;53.316;13.950;2024-01-30T10:22:32;12.50;;;9.47;;
11247;SDS011;5681;53.316;13.950;2024-01-30T10:24:58;13.77;;;9.50;;
11247;SDS011;5681;53.316;13.950;2024-01-30T10:27:26;14.57;;;8.77;;
11247;SDS011;5681;53.316;13.950;2024-01-30T10:29:54;16.73;;;9.70;;
11247;SDS011;5681;53.316;13.950;2024-01-30T10:32:21;12.67;;;8.80;;
11247;SDS011;5681;53.316;13.950;2024-01-30T10:34:47;16.90;;;9.30;;
11247;SDS011;5681;53.316;13.950;2024-01-30T10:37:15;12.40;;;8.47;;
11247;SDS011;5681;53.316;13.950;2024-01-30T10:39:44;11.03;;;8.53;;
11247;SDS011;5681;53.316;13.950;2024-01-30T10:42:11;16.03;;;9.77;;
11247;SDS011;5681;53.316;13.950;2024-01-30T10:44:41;15.10;;;8.73;;
11247;SDS011;5681;53.316;13.950;2024-01-30T10:47:11;16.33;;;8.63;;
11247;SDS011;5681;53.316;13.950;2024-01-30T10:49:39;11.87;;;8.67;;
11247;SDS011;5681;53.316;13.950;2024-01-30T10:52:05;12.50;;;8.30;;
11247;SDS011;5681;53.316;13.950;2024-01-30T10:54:37;12.43;;;8.60;;
11247;SDS011;5681;53.316;13.950;2024-01-30T10:57:05;12.13;;;8.30;;
11247;SDS011;5681;53.316;13.950;2024-01-30T10:59:31;13.23;;;9.40;;
11247;SDS011;5681;53.316;13.950;2024-01-30T11:01:59;14.07;;;8.67;;
11247;SDS011;5681;53.316;13.950;2024-01-30T11:04:25;12.43;;;8.50;;
11247;SDS011;5681;53.316;13.950;2024-01-30T11:06:52;15.43;;;9.53;;
11247;SDS011;5681;53.316;13.950;2024-01-30T11:09:19;13.55;;;8.45;;
11247;SDS011;5681;53.316;13.950;2024-01-30T11:11:49;12.38;;;9.00;;
11247;SDS011;5681;53.316;13.950;2024-01-30T11:14:17;11.93;;;8.55;;
11247;SDS011;5681;53.316;13.950;2024-01-30T11:16:49;13.95;;;8.85;;
11247;SDS011;5681;53.316;13.950;2024-01-30T11:19:15;13.23;;;7.97;;
11247;SDS011;5681;53.316;13.950;2024-01-30T11:21:49;12.67;;;8.23;;
11247;SDS011;5681;53.316;13.950;2024-01-30T11:24:18;11.50;;;8.15;;
11247;SDS011;5681;53.316;13.950;2024-01-30T11:26:45;13.27;;;8.70;;
11247;SDS011;5681;53.316;13.950;2024-01-30T11:29:13;13.02;;;9.02;;
11247;SDS011;5681;53.316;13.950;2024-01-30T11:31:41;13.55;;;8.48;;
11247;SDS011;5681;53.316;13.950;2024-01-30T11:34:17;15.10;;;8.90;;
11247;SDS011;5681;53.316;13.950;2024-01-30T11:36:44;14.73;;;8.43;;
11247;SDS011;5681;53.316;13.950;2024-01-30T11:39:11;12.00;;;8.33;;
11247;SDS011;5681;53.316;13.950;2024-01-30T11:41:39;12.13;;;8.60;;
11247;SDS011;5681;53.316;13.950;2024-01-30T11:44:06;11.83;;;9.10;;
11247;SDS011;5681;53.316;13.950;2024-01-30T11:46:32;13.50;;;9.10;;
11247;SDS011;5681;53.316;13.950;2024-01-30T11:49:00;13.05;;;9.00;;
11247;SDS011;5681;53.316;13.950;2024-01-30T11:51:27;12.20;;;8.90;;
11247;SDS011;5681;53.316;13.950;2024-01-30T11:53:54;13.53;;;8.83;;
11247;SDS011;5681;53.316;13.950;2024-01-30T11:56:20;14.00;;;8.80;;
11247;SDS011;5681;53.316;13.950;2024-01-30T11:58:46;14.13;;;8.50;;
11247;SDS011;5681;53.316;13.950;2024-01-30T12:01:13;13.60;;;9.07;;
11247;SDS011;5681;53.316;13.950;2024-01-30T12:03:39;14.32;;;9.45;;
11247;SDS011;5681;53.316;13.950;2024-01-30T12:06:07;13.20;;;8.70;;
11247;SDS011;5681;53.316;13.950;2024-01-30T12:08:33;14.13;;;8.50;;
11247;SDS011;5681;53.316;13.950;2024-01-30T12:11:00;13.07;;;8.77;;
11247;SDS011;5681;53.316;13.950;2024-01-30T12:13:30;11.87;;;9.13;;
11247;SDS011;5681;53.316;13.950;2024-01-30T12:15:56;13.33;;;8.87;;
11247;SDS011;5681;53.316;13.950;2024-01-30T12:18:23;14.23;;;9.70;;
11247;SDS011;5681;53.316;13.950;2024-01-30T12:20:56;16.60;;;9.53;;
11247;SDS011;5681;53.316;13.950;2024-01-30T12:23:24;12.27;;;8.88;;
11247;SDS011;5681;53.316;13.950;2024-01-30T12:25:51;13.20;;;9.27;;
11247;SDS011;5681;53.316;13.950;2024-01-30T12:28:18;14.27;;;9.07;;
11247;SDS011;5681;53.316;13.950;2024-01-30T12:30:44;14.10;;;10.23;;
11247;SDS011;5681;53.316;13.950;2024-01-30T12:33:15;13.00;;;8.57;;
11247;SDS011;5681;53.316;13.950;2024-01-30T12:35:45;12.67;;;8.87;;
11247;SDS011;5681;53.316;13.950;2024-01-30T12:38:12;17.20;;;12.70;;
11247;SDS011;5681;53.316;13.950;2024-01-30T12:40:39;13.52;;;8.52;;
11247;SDS011;5681;53.316;13.950;2024-01-30T12:43:06;15.98;;;9.82;;
11247;SDS011;5681;53.316;13.950;2024-01-30T12:45:33;14.35;;;8.82;;
11247;SDS011;5681;53.316;13.950;2024-01-30T12:47:59;14.40;;;11.95;;
11247;SDS011;5681;53.316;13.950;2024-01-30T12:50:25;11.90;;;8.90;;
11247;SDS011;5681;53.316;13.950;2024-01-30T12:52:53;14.73;;;11.43;;
11247;SDS011;5681;53.316;13.950;2024-01-30T12:55:21;13.23;;;10.15;;
11247;SDS011;5681;53.316;13.950;2024-01-30T12:57:48;13.88;;;8.80;;
11247;SDS011;5681;53.316;13.950;2024-01-30T13:00:15;15.57;;;9.00;;
11247;SDS011;5681;53.316;13.950;2024-01-30T13:02:42;13.82;;;8.82;;
11247;SDS011;5681;53.316;13.950;2024-01-30T13:05:09;12.85;;;8.70;;
11247;SDS011;5681;53.316;13.950;2024-01-30T13:07:36;13.05;;;8.38;;
11247;SDS011;5681;53.316;13.950;2024-01-30T13:10:03;12.90;;;8.57;;
11247;SDS011;5681;53.316;13.950;2024-01-30T13:12:29;12.45;;;8.95;;
11247;SDS011;5681;53.316;13.950;2024-01-30T13:14:58;13.00;;;8.10;;
11247;SDS011;5681;53.316;13.950;2024-01-30T13:17:26;13.90;;;9.25;;
11247;SDS011;5681;53.316;13.950;2024-01-30T13:19:52;13.60;;;8.25;;
11247;SDS011;5681;53.316;13.950;2024-01-30T13:22:19;11.77;;;8.55;;
11247;SDS011;5681;53.316;13.950;2024-01-30T13:24:46;12.65;;;8.35;;
11247;SDS011;5681;53.316;13.950;2024-01-30T13:27:13;11.02;;;8.45;;
11247;SDS011;5681;53.316;13.950;2024-01-30T13:29:39;12.15;;;9.60;;
11247;SDS011;5681;53.316;13.950;2024-01-30T13:32:07;13.77;;;9.20;;
11247;SDS011;5681;53.316;13.950;2024-01-30T13:34:33;12.50;;;9.30;;
11247;SDS011;5681;53.316;13.950;2024-01-30T13:37:00;14.65;;;8.85;;
11247;SDS011;5681;53.316;13.950;2024-01-30T13:39:25;11.98;;;8.90;;
11247;SDS011;5681;53.316;13.950;2024-01-30T13:41:51;18.45;;;9.52;;
11247;SDS011;5681;53.316;13.950;2024-01-30T13:44:18;15.48;;;9.85;;
11247;SDS011;5681;53.316;13.950;2024-01-30T13:46:45;13.48;;;9.60;;
11247;SDS011;5681;53.316;13.950;2024-01-30T13:49:13;14.40;;;9.50;;
11247;SDS011;5681;53.316;13.950;2024-01-30T13:51:40;11.98;;;8.32;;
11247;SDS011;5681;53.316;13.950;2024-01-30T13:54:06;17.08;;;9.77;;
11247;SDS011;5681;53.316;13.950;2024-01-30T13:56:33;11.90;;;8.30;;
11247;SDS011;5681;53.316;13.950;2024-01-30T13:58:59;12.07;;;8.63;;
11247;SDS011;5681;53.316;13.950;2024-01-30T14:01:30;14.27;;;9.60;;
11247;SDS011;5681;53.316;13.950;2024-01-30T14:03:56;12.52;;;8.48;;
11247;SDS011;5681;53.316;13.950;2024-01-30T14:06:24;11.73;;;8.80;;
11247;SDS011;5681;53.316;13.950;2024-01-30T14:08:50;14.32;;;9.05;;
11247;SDS011;5681;53.316;13.950;2024-01-30T14:11:16;11.02;;;7.97;;
11247;SDS011;5681;53.316;13.950;2024-01-30T14:13:43;10.55;;;8.13;;
11247;SDS011;5681;53.316;13.950;2024-01-30T14:16:09;11.70;;;8.48;;
11247;SDS011;5681;53.316;13.950;2024-01-30T14:18:36;15.40;;;8.70;;
11247;SDS011;5681;53.316;13.950;2024-01-30T14:21:02;11.88;;;8.88;;
11247;SDS011;5681;53.316;13.950;2024-01-30T14:23:30;12.00;;;8.77;;
11247;SDS011;5681;53.316;13.950;2024-01-30T14:25:56;13.13;;;9.48;;
11247;SDS011;5681;53.316;13.950;2024-01-30T14:28:22;14.27;;;9.18;;
11247;SDS011;5681;53.316;13.950;2024-01-30T14:30:49;14.00;;;9.23;;
11247;SDS011;5681;53.316;13.950;2024-01-30T14:33:15;11.65;;;8.73;;